Wolf 59 — CGBP — position and weather

sailwx.info

Track history (hours):
 
Tides and Currents Weather Stations Pressure Air Temp Water Temp Dewpoint Dewpoint Depression Visibility Wind Speed Wind Dir Waves Ship Positions

Wolf 59

Last reported at 2017-Jan-18 19:33 UTC. Time now 2017-Jan-18 20:21 UTC.
Position N 48°51' W 123°19'.

Length 33 m; draft 5 m.

Type: Military. MMSI: 316011515.

Date/timePositionNaut miles runAvg speedWind from/ knotsBaromVisibWave heightAir tempDewpointWater temp
2017-Jan-18 19:33N 48°51' W 123°19'2 1.7
2017-Jan-18 18:32N 48°51' W 123°21'1110.8
2017-Jan-18 17:33N 48°44' W 123°08'1110.5
2017-Jan-18 16:32N 48°35' W 123°02'2 2.2
2017-Jan-18 15:30N 48°32' W 123°01'0 0.0
2017-Jan-18 14:33N 48°32' W 123°01'0 0.0
2017-Jan-18 13:33N 48°32' W 123°01'0 0.0
2017-Jan-18 12:33N 48°32' W 123°01'0 0.0
2017-Jan-18 11:33N 48°32' W 123°01'0 0.0
2017-Jan-18 10:33N 48°32' W 123°01'0 0.0
2017-Jan-18 09:33N 48°32' W 123°01'0 0.0
2017-Jan-18 08:33N 48°32' W 123°01'0 0.0
2017-Jan-18 07:33N 48°32' W 123°01'0 0.0
2017-Jan-18 06:33N 48°32' W 123°01'0 0.0
2017-Jan-18 05:33N 48°32' W 123°01'0 0.0
2017-Jan-18 04:33N 48°32' W 123°01'0 0.0
2017-Jan-18 03:33N 48°32' W 123°01'0 0.0
2017-Jan-18 02:33N 48°32' W 123°01'0 0.0
2017-Jan-18 01:33N 48°32' W 123°01'0 0.1
2017-Jan-18 00:33N 48°32' W 123°01'2 2.4
2017-Jan-17 23:34N 48°35' W 123°02'8 7.7
2017-Jan-17 22:33N 48°38' W 123°12'1212.5
2017-Jan-17 21:33N 48°48' W 123°23'9 8.7
2017-Jan-17 20:33N 48°55' W 123°30'1111.2
2017-Jan-17 19:33N 49°03' W 123°43'8 7.5
2017-Jan-17 18:28N 48°56' W 123°37'6 6.0
2017-Jan-17 17:33N 48°54' W 123°29'3 2.8
2017-Jan-17 16:26N 48°51' W 123°29'1 0.6
2017-Jan-17 15:31N 48°51' W 123°30'0 0.0
2017-Jan-17 14:28N 48°51' W 123°30'0 0.0
2017-Jan-17 13:31N 48°51' W 123°30'0 0.0
2017-Jan-17 12:31N 48°51' W 123°30'0 0.0
2017-Jan-17 11:31N 48°51' W 123°30'0 0.0
2017-Jan-17 10:25N 48°51' W 123°30'0 0.0
2017-Jan-17 09:16N 48°51' W 123°30'0 0.0
2017-Jan-17 08:31N 48°51' W 123°30'0 0.0
2017-Jan-17 07:31N 48°51' W 123°30'0 0.0
2017-Jan-17 06:28N 48°51' W 123°30'0 0.0
2017-Jan-17 05:34N 48°51' W 123°30'0 0.0
2017-Jan-17 04:33N 48°51' W 123°30'0 0.0
2017-Jan-17 03:30N 48°51' W 123°30'0 0.0
2017-Jan-17 02:33N 48°51' W 123°30'0 0.0
2017-Jan-17 01:33N 48°51' W 123°30'0 0.0
2017-Jan-17 00:30N 48°51' W 123°30'7 5.8
2017-Jan-16 23:23N 48°50' W 123°20'910.2
2017-Jan-16 22:32N 48°41' W 123°21'8 8.1
2017-Jan-16 21:34N 48°33' W 123°18'9 8.8
2017-Jan-16 20:33N 48°25' W 123°15'7 7.3
2017-Jan-16 19:33N 48°24' W 123°26'1 1.2
2017-Jan-16 18:22N 48°26' W 123°26'0 0.0
2017-Jan-16 17:25N 48°26' W 123°26'0 0.0
2017-Jan-14 16:28N 48°26' W 123°26'0 0.0
2017-Jan-14 05:19N 48°26' W 123°26'0 0.0
2017-Jan-13 23:16N 48°26' W 123°26'0 0.0
2017-Jan-13 22:19N 48°26' W 123°26'0 0.0
2017-Jan-13 21:25N 48°26' W 123°26'0 0.0
2017-Jan-13 19:28N 48°26' W 123°26'0 0.0
2017-Jan-13 18:31N 48°26' W 123°26'0 0.0
2017-Jan-13 16:31N 48°26' W 123°26'0 0.0
2017-Jan-13 15:28N 48°26' W 123°26'0 0.0
2017-Jan-13 14:31N 48°26' W 123°26'0 0.0
2017-Jan-13 13:31N 48°26' W 123°26'0 0.0
2017-Jan-13 12:31N 48°26' W 123°26'0 0.0
2017-Jan-13 11:28N 48°26' W 123°26'0 0.0
2017-Jan-13 10:31N 48°26' W 123°26'0 0.0
2017-Jan-13 09:31N 48°26' W 123°26'0 0.0
2017-Jan-13 08:25N 48°26' W 123°26'0 0.0
2017-Jan-13 03:16N 48°26' W 123°26'0 0.0
2017-Jan-13 02:31N 48°26' W 123°26'0 0.0
2017-Jan-13 01:31N 48°26' W 123°26'0 0.0
2017-Jan-13 00:31N 48°26' W 123°26'0 0.0
2017-Jan-12 23:28N 48°26' W 123°26'0 0.0
2017-Jan-12 22:31N 48°26' W 123°26'0 0.0
2017-Jan-12 21:31N 48°26' W 123°26'0 0.0
2017-Jan-12 20:25N 48°26' W 123°26'0 0.0
2017-Jan-12 18:16N 48°26' W 123°26'0 0.0
2017-Jan-12 15:31N 48°26' W 123°26'0 0.0
2017-Jan-12 14:31N 48°26' W 123°26'0 0.0
2017-Jan-12 13:25N 48°26' W 123°26'0 0.0
2017-Jan-12 12:22N 48°26' W 123°26'0 0.0
2017-Jan-12 11:31N 48°26' W 123°26'0 0.0
2017-Jan-12 10:28N 48°26' W 123°26'0 0.0
2017-Jan-12 03:19N 48°26' W 123°26'0 0.0
2017-Jan-12 01:19N 48°26' W 123°26'0 0.0
2017-Jan-12 00:28N 48°26' W 123°26'0 0.0
2017-Jan-11 23:22N 48°26' W 123°26'0 0.0
2017-Jan-11 22:31N 48°26' W 123°26'0 0.0
2017-Jan-11 21:16N 48°26' W 123°26'0 0.0
2017-Jan-11 20:28N 48°26' W 123°26'0 0.0
2017-Jan-11 19:28N 48°26' W 123°26'0 0.0
2017-Jan-11 17:22N 48°26' W 123°26'0 0.0
2017-Jan-11 16:28N 48°26' W 123°26'0 0.0
2017-Jan-11 15:31N 48°26' W 123°26'0 0.0
2017-Jan-10 21:22N 48°26' W 123°26'0 0.0
2017-Jan-10 20:17N 48°26' W 123°26'0 0.0
2017-Jan-10 19:29N 48°26' W 123°26'0 0.0
2017-Jan-10 17:11N 48°26' W 123°26'0 0.0
2017-Jan-10 08:26N 48°26' W 123°26'0 0.0
2017-Jan-10 07:32N 48°26' W 123°26'0 0.0
2017-Jan-09 22:26N 48°26' W 123°26'0 0.0
2017-Jan-09 21:32N 48°26' W 123°26'0 0.0
2017-Jan-09 20:32N 48°26' W 123°26'0 0.0
2017-Jan-09 18:26N 48°26' W 123°26'0 0.0
2017-Jan-09 17:26N 48°26' W 123°26'0 0.0
2017-Jan-09 14:32N 48°26' W 123°26'0 0.0
2017-Jan-09 11:29N 48°26' W 123°26'0 0.0
2017-Jan-09 09:29N 48°26' W 123°26'0 0.0
2017-Jan-09 07:17N 48°26' W 123°26'0 0.0
2017-Jan-09 05:17N 48°26' W 123°26'0 0.0
2017-Jan-09 04:26N 48°26' W 123°26'0 0.0
2017-Jan-08 23:23N 48°26' W 123°26'0 0.0
2017-Jan-08 22:29N 48°26' W 123°26'0 0.0
2017-Jan-08 21:11N 48°26' W 123°26'0 0.0
2017-Jan-08 20:17N 48°26' W 123°26'  
Track history (hours):
 
Tides and Currents Weather Stations Pressure Air Temp Water Temp Dewpoint Dewpoint Depression Visibility Wind Speed Wind Dir Waves Ship Positions

Wolf 59

Last reported at 2017-Jan-18 19:33 UTC. Time now 2017-Jan-18 20:21 UTC.
Position N 48°51' W 123°19'.

Length 33 m; draft 5 m.

Type: Military. MMSI: 316011515.

Date/timePositionNaut miles runAvg speedWind from/ knotsBaromVisibWave heightAir tempDewpointWater temp
2017-Jan-18 19:33N 48°51' W 123°19'2 1.7
2017-Jan-18 18:32N 48°51' W 123°21'1110.8
2017-Jan-18 17:33N 48°44' W 123°08'1110.5
2017-Jan-18 16:32N 48°35' W 123°02'2 2.2
2017-Jan-18 15:30N 48°32' W 123°01'0 0.0
2017-Jan-18 14:33N 48°32' W 123°01'0 0.0
2017-Jan-18 13:33N 48°32' W 123°01'0 0.0
2017-Jan-18 12:33N 48°32' W 123°01'0 0.0
2017-Jan-18 11:33N 48°32' W 123°01'0 0.0
2017-Jan-18 10:33N 48°32' W 123°01'0 0.0
2017-Jan-18 09:33N 48°32' W 123°01'0 0.0
2017-Jan-18 08:33N 48°32' W 123°01'0 0.0
2017-Jan-18 07:33N 48°32' W 123°01'0 0.0
2017-Jan-18 06:33N 48°32' W 123°01'0 0.0
2017-Jan-18 05:33N 48°32' W 123°01'0 0.0
2017-Jan-18 04:33N 48°32' W 123°01'0 0.0
2017-Jan-18 03:33N 48°32' W 123°01'0 0.0
2017-Jan-18 02:33N 48°32' W 123°01'0 0.0
2017-Jan-18 01:33N 48°32' W 123°01'0 0.1
2017-Jan-18 00:33N 48°32' W 123°01'2 2.4
2017-Jan-17 23:34N 48°35' W 123°02'8 7.7
2017-Jan-17 22:33N 48°38' W 123°12'1212.5
2017-Jan-17 21:33N 48°48' W 123°23'9 8.7
2017-Jan-17 20:33N 48°55' W 123°30'1111.2
2017-Jan-17 19:33N 49°03' W 123°43'8 7.5
2017-Jan-17 18:28N 48°56' W 123°37'6 6.0
2017-Jan-17 17:33N 48°54' W 123°29'3 2.8
2017-Jan-17 16:26N 48°51' W 123°29'1 0.6
2017-Jan-17 15:31N 48°51' W 123°30'0 0.0
2017-Jan-17 14:28N 48°51' W 123°30'0 0.0
2017-Jan-17 13:31N 48°51' W 123°30'0 0.0
2017-Jan-17 12:31N 48°51' W 123°30'0 0.0
2017-Jan-17 11:31N 48°51' W 123°30'0 0.0
2017-Jan-17 10:25N 48°51' W 123°30'0 0.0
2017-Jan-17 09:16N 48°51' W 123°30'0 0.0
2017-Jan-17 08:31N 48°51' W 123°30'0 0.0
2017-Jan-17 07:31N 48°51' W 123°30'0 0.0
2017-Jan-17 06:28N 48°51' W 123°30'0 0.0
2017-Jan-17 05:34N 48°51' W 123°30'0 0.0
2017-Jan-17 04:33N 48°51' W 123°30'0 0.0
2017-Jan-17 03:30N 48°51' W 123°30'0 0.0
2017-Jan-17 02:33N 48°51' W 123°30'0 0.0
2017-Jan-17 01:33N 48°51' W 123°30'0 0.0
2017-Jan-17 00:30N 48°51' W 123°30'7 5.8
2017-Jan-16 23:23N 48°50' W 123°20'910.2
2017-Jan-16 22:32N 48°41' W 123°21'8 8.1
2017-Jan-16 21:34N 48°33' W 123°18'9 8.8
2017-Jan-16 20:33N 48°25' W 123°15'7 7.3
2017-Jan-16 19:33N 48°24' W 123°26'1 1.2
2017-Jan-16 18:22N 48°26' W 123°26'0 0.0
2017-Jan-16 17:25N 48°26' W 123°26'0 0.0
2017-Jan-14 16:28N 48°26' W 123°26'0 0.0
2017-Jan-14 05:19N 48°26' W 123°26'0 0.0
2017-Jan-13 23:16N 48°26' W 123°26'0 0.0
2017-Jan-13 22:19N 48°26' W 123°26'0 0.0
2017-Jan-13 21:25N 48°26' W 123°26'0 0.0
2017-Jan-13 19:28N 48°26' W 123°26'0 0.0
2017-Jan-13 18:31N 48°26' W 123°26'0 0.0
2017-Jan-13 16:31N 48°26' W 123°26'0 0.0
2017-Jan-13 15:28N 48°26' W 123°26'0 0.0
2017-Jan-13 14:31N 48°26' W 123°26'0 0.0
2017-Jan-13 13:31N 48°26' W 123°26'0 0.0
2017-Jan-13 12:31N 48°26' W 123°26'0 0.0
2017-Jan-13 11:28N 48°26' W 123°26'0 0.0
2017-Jan-13 10:31N 48°26' W 123°26'0 0.0
2017-Jan-13 09:31N 48°26' W 123°26'0 0.0
2017-Jan-13 08:25N 48°26' W 123°26'0 0.0
2017-Jan-13 03:16N 48°26' W 123°26'0 0.0
2017-Jan-13 02:31N 48°26' W 123°26'0 0.0
2017-Jan-13 01:31N 48°26' W 123°26'0 0.0
2017-Jan-13 00:31N 48°26' W 123°26'0 0.0
2017-Jan-12 23:28N 48°26' W 123°26'0 0.0
2017-Jan-12 22:31N 48°26' W 123°26'0 0.0
2017-Jan-12 21:31N 48°26' W 123°26'0 0.0
2017-Jan-12 20:25N 48°26' W 123°26'0 0.0
2017-Jan-12 18:16N 48°26' W 123°26'0 0.0
2017-Jan-12 15:31N 48°26' W 123°26'0 0.0
2017-Jan-12 14:31N 48°26' W 123°26'0 0.0
2017-Jan-12 13:25N 48°26' W 123°26'0 0.0
2017-Jan-12 12:22N 48°26' W 123°26'0 0.0
2017-Jan-12 11:31N 48°26' W 123°26'0 0.0
2017-Jan-12 10:28N 48°26' W 123°26'0 0.0
2017-Jan-12 03:19N 48°26' W 123°26'0 0.0
2017-Jan-12 01:19N 48°26' W 123°26'0 0.0
2017-Jan-12 00:28N 48°26' W 123°26'0 0.0
2017-Jan-11 23:22N 48°26' W 123°26'0 0.0
2017-Jan-11 22:31N 48°26' W 123°26'0 0.0
2017-Jan-11 21:16N 48°26' W 123°26'0 0.0
2017-Jan-11 20:28N 48°26' W 123°26'0 0.0
2017-Jan-11 19:28N 48°26' W 123°26'0 0.0
2017-Jan-11 17:22N 48°26' W 123°26'0 0.0
2017-Jan-11 16:28N 48°26' W 123°26'0 0.0
2017-Jan-11 15:31N 48°26' W 123°26'0 0.0
2017-Jan-10 21:22N 48°26' W 123°26'0 0.0
2017-Jan-10 20:17N 48°26' W 123°26'0 0.0
2017-Jan-10 19:29N 48°26' W 123°26'0 0.0
2017-Jan-10 17:11N 48°26' W 123°26'0 0.0
2017-Jan-10 08:26N 48°26' W 123°26'0 0.0
2017-Jan-10 07:32N 48°26' W 123°26'0 0.0
2017-Jan-09 22:26N 48°26' W 123°26'0 0.0
2017-Jan-09 21:32N 48°26' W 123°26'0 0.0
2017-Jan-09 20:32N 48°26' W 123°26'0 0.0
2017-Jan-09 18:26N 48°26' W 123°26'0 0.0
2017-Jan-09 17:26N 48°26' W 123°26'0 0.0
2017-Jan-09 14:32N 48°26' W 123°26'0 0.0
2017-Jan-09 11:29N 48°26' W 123°26'0 0.0
2017-Jan-09 09:29N 48°26' W 123°26'0 0.0
2017-Jan-09 07:17N 48°26' W 123°26'0 0.0
2017-Jan-09 05:17N 48°26' W 123°26'0 0.0
2017-Jan-09 04:26N 48°26' W 123°26'0 0.0
2017-Jan-08 23:23N 48°26' W 123°26'0 0.0
2017-Jan-08 22:29N 48°26' W 123°26'0 0.0
2017-Jan-08 21:11N 48°26' W 123°26'0 0.0
2017-Jan-08 20:17N 48°26' W 123°26'  

Dump ship's entire track history